Time;durP1;ratioP1;P1;durP2;ratioP2;P2;SDS_P1;SDS_P2;PMS_P1;PMS_P2;Temp;Humidity;BMP_temperature;BMP_pressure;BME280_temperature;BME280_humidity;BME280_pressure;Samples;Min_cycle;Max_cycle;Signal;HPM_P1;HPM_P2
2021/05/29 00:00:40;;;;;;;7.90;6.93;;;;;;;;;;3610095;39;20483;-83
2021/05/29 00:03:06;;;;;;;7.50;6.83;;;;;;;;;;3607779;39;20454;-83
2021/05/29 00:05:33;;;;;;;11.37;8.20;;;;;;;;;;3605304;39;20396;-82
2021/05/29 00:07:59;;;;;;;13.67;9.00;;;;;;;;;;3597309;39;20418;-83
2021/05/29 00:10:26;;;;;;;8.60;7.80;;;;;;;;;;3606568;39;20395;-83
2021/05/29 00:12:54;;;;;;;8.03;7.13;;;;;;;;;;3610137;39;20434;-83
2021/05/29 00:15:20;;;;;;;8.07;7.27;;;;;;;;;;3608824;39;20380;-83
2021/05/29 00:17:46;;;;;;;10.23;7.47;;;;;;;;;;3601803;39;21193;-82
2021/05/29 00:20:12;;;;;;;10.30;8.13;;;;;;;;;;3611255;39;20911;-82
2021/05/29 00:22:38;;;;;;;8.23;7.20;;;;;;;;;;3602925;39;20403;-82
2021/05/29 00:25:05;;;;;;;7.83;6.93;;;;;;;;;;3590736;39;20406;-82
2021/05/29 00:27:32;;;;;;;10.10;8.10;;;;;;;;;;3611434;39;20415;-82
2021/05/29 00:29:58;;;;;;;8.87;8.03;;;;;;;;;;3595571;39;20429;-83
2021/05/29 00:32:24;;;;;;;10.07;9.07;;;;;;;;;;3608434;39;20426;-83
2021/05/29 00:34:50;;;;;;;11.00;8.60;;;;;;;;;;3595984;39;20451;-82
2021/05/29 00:37:16;;;;;;;11.53;8.20;;;;;;;;;;3603540;39;20415;-83
2021/05/29 00:39:42;;;;;;;9.70;8.30;;;;;;;;;;3604315;39;20413;-83
2021/05/29 00:42:08;;;;;;;8.90;8.00;;;;;;;;;;3613235;39;21140;-83
2021/05/29 00:44:51;;;;;;;10.47;8.70;;;;;;;;;;3607888;39;20826;-82
2021/05/29 00:47:26;;;;;;;9.10;7.87;;;;;;;;;;3610157;39;20451;-82
2021/05/29 00:49:52;;;;;;;10.07;8.47;;;;;;;;;;3604355;39;20378;-82
2021/05/29 00:52:20;;;;;;;10.00;7.73;;;;;;;;;;3595656;39;20412;-82
2021/05/29 00:54:46;;;;;;;9.00;8.10;;;;;;;;;;3612012;39;20430;-82
2021/05/29 00:57:15;;;;;;;9.30;8.30;;;;;;;;;;3612637;39;20403;-83
2021/05/29 00:59:41;;;;;;;9.20;8.30;;;;;;;;;;3609588;39;20528;-82
2021/05/29 01:02:08;;;;;;;10.03;9.07;;;;;;;;;;3601944;39;20426;-79
2021/05/29 01:04:41;;;;;;;11.60;8.10;;;;;;;;;;3652584;22;20434;-83
2021/05/29 01:07:11;;;;;;;9.77;8.63;;;;;;;;;;3609106;39;20421;-83
2021/05/29 01:09:39;;;;;;;10.80;8.90;;;;;;;;;;3601361;39;20402;-82
2021/05/29 01:12:06;;;;;;;9.40;7.87;;;;;;;;;;3611504;39;21168;-83
2021/05/29 01:14:32;;;;;;;10.60;9.00;;;;;;;;;;3610244;39;20386;-83
2021/05/29 01:16:59;;;;;;;12.17;9.57;;;;;;;;;;3608148;39;20464;-82
2021/05/29 01:19:26;;;;;;;9.60;8.60;;;;;;;;;;3610961;39;20392;-82
2021/05/29 01:21:52;;;;;;;11.80;10.60;;;;;;;;;;3614491;39;20414;-82
2021/05/29 01:24:19;;;;;;;10.40;9.30;;;;;;;;;;3620699;39;21113;-83
2021/05/29 01:26:45;;;;;;;11.90;9.60;;;;;;;;;;3602384;39;20453;-83
2021/05/29 01:29:11;;;;;;;11.73;10.30;;;;;;;;;;3598499;39;20467;-83
2021/05/29 01:31:37;;;;;;;10.80;9.10;;;;;;;;;;3611438;39;20497;-82
2021/05/29 01:34:04;;;;;;;10.90;9.77;;;;;;;;;;3609963;39;21148;-83
2021/05/29 01:36:30;;;;;;;9.83;8.23;;;;;;;;;;3603769;39;21855;-83
2021/05/29 01:38:56;;;;;;;9.67;8.77;;;;;;;;;;3612028;39;20445;-83
2021/05/29 01:41:25;;;;;;;11.47;9.77;;;;;;;;;;3602873;39;20498;-82
2021/05/29 01:43:51;;;;;;;10.23;9.10;;;;;;;;;;3620861;39;20345;-83
2021/05/29 01:46:22;;;;;;;10.13;8.93;;;;;;;;;;3602386;39;20433;-83
2021/05/29 01:48:49;;;;;;;11.73;9.63;;;;;;;;;;3603100;39;20449;-83
2021/05/29 01:51:17;;;;;;;12.97;10.40;;;;;;;;;;3602994;39;20429;-83
2021/05/29 01:53:43;;;;;;;12.17;10.53;;;;;;;;;;3603341;39;20391;-82
2021/05/29 01:56:09;;;;;;;10.67;9.67;;;;;;;;;;3603737;39;20407;-82
2021/05/29 01:58:36;;;;;;;10.40;8.87;;;;;;;;;;3612375;39;20802;-83
2021/05/29 02:01:03;;;;;;;10.47;9.40;;;;;;;;;;3604930;39;20432;-83
2021/05/29 02:03:29;;;;;;;13.63;9.40;;;;;;;;;;3620604;39;20403;-83
2021/05/29 02:05:55;;;;;;;11.73;10.10;;;;;;;;;;3616660;39;20759;-82
2021/05/29 02:08:22;;;;;;;17.50;9.67;;;;;;;;;;3602950;39;21124;-83
2021/05/29 02:10:48;;;;;;;12.60;10.20;;;;;;;;;;3602674;39;20414;-82
2021/05/29 02:13:32;;;;;;;11.80;9.20;;;;;;;;;;3601706;39;20405;-83
2021/05/29 02:15:58;;;;;;;12.60;9.30;;;;;;;;;;3610746;39;20390;-82
2021/05/29 02:18:26;;;;;;;9.93;8.93;;;;;;;;;;3604208;39;21079;-82
2021/05/29 02:20:53;;;;;;;11.17;10.07;;;;;;;;;;3610919;39;20431;-82
2021/05/29 02:23:20;;;;;;;10.50;9.43;;;;;;;;;;3609846;39;20417;-82
2021/05/29 02:25:47;;;;;;;10.60;9.60;;;;;;;;;;3621804;39;20394;-83
2021/05/29 02:28:14;;;;;;;10.60;9.50;;;;;;;;;;3609283;39;20429;-82
2021/05/29 02:30:40;;;;;;;13.93;9.80;;;;;;;;;;3610174;39;21263;-82
2021/05/29 02:33:29;;;;;;;10.57;9.50;;;;;;;;;;3603263;39;20450;-83
2021/05/29 02:35:57;;;;;;;12.97;10.67;;;;;;;;;;3590198;39;20578;-82
2021/05/29 02:38:23;;;;;;;13.40;9.80;;;;;;;;;;3582818;39;20416;-83
2021/05/29 02:40:49;;;;;;;11.03;9.63;;;;;;;;;;3588793;39;20538;-83
2021/05/29 02:43:15;;;;;;;10.10;8.73;;;;;;;;;;3588293;39;21222;-82
2021/05/29 02:45:41;;;;;;;10.57;9.47;;;;;;;;;;3588032;39;20458;-81
2021/05/29 02:48:09;;;;;;;15.20;9.53;;;;;;;;;;3587147;39;20423;-82
2021/05/29 02:50:35;;;;;;;11.90;9.63;;;;;;;;;;3576131;39;20373;-81
2021/05/29 02:53:02;;;;;;;9.80;8.90;;;;;;;;;;3575789;39;20407;-82
2021/05/29 02:55:28;;;;;;;13.13;10.50;;;;;;;;;;3590992;39;20769;-83
2021/05/29 02:57:55;;;;;;;10.77;8.80;;;;;;;;;;3589887;39;20435;-82
2021/05/29 03:00:23;;;;;;;10.50;9.50;;;;;;;;;;3590447;39;20726;-82
2021/05/29 03:02:49;;;;;;;11.00;9.93;;;;;;;;;;3590233;39;20355;-83
2021/05/29 03:05:15;;;;;;;10.00;8.73;;;;;;;;;;3603745;39;20414;-82
2021/05/29 03:07:41;;;;;;;12.50;10.07;;;;;;;;;;3601110;39;20418;-82
2021/05/29 03:10:08;;;;;;;11.93;10.70;;;;;;;;;;3602520;39;20434;-83
2021/05/29 03:12:36;;;;;;;11.77;9.80;;;;;;;;;;3622202;39;20425;-83
2021/05/29 03:15:05;;;;;;;10.93;9.23;;;;;;;;;;3629898;39;20409;-83
2021/05/29 03:17:31;;;;;;;11.97;10.77;;;;;;;;;;3620030;39;20434;-83
2021/05/29 03:19:57;;;;;;;13.70;9.90;;;;;;;;;;3611574;39;20417;-83
2021/05/29 03:22:23;;;;;;;12.53;9.00;;;;;;;;;;3619009;39;20398;-83
2021/05/29 03:24:49;;;;;;;12.57;9.10;;;;;;;;;;3619541;39;20847;-84
2021/05/29 03:27:18;;;;;;;10.23;9.20;;;;;;;;;;3613086;39;20402;-83
2021/05/29 03:29:44;;;;;;;11.03;9.30;;;;;;;;;;3628510;39;20477;-83
2021/05/29 03:32:10;;;;;;;12.23;9.23;;;;;;;;;;3616258;39;20428;-83
2021/05/29 03:34:36;;;;;;;10.73;9.00;;;;;;;;;;3612977;39;20453;-83
2021/05/29 03:37:02;;;;;;;14.80;10.27;;;;;;;;;;3620547;39;20826;-83
2021/05/29 03:39:28;;;;;;;10.13;9.03;;;;;;;;;;3605928;39;20420;-83
2021/05/29 03:41:55;;;;;;;11.60;10.23;;;;;;;;;;3621687;39;20422;-83
2021/05/29 03:44:21;;;;;;;10.80;9.67;;;;;;;;;;3613365;39;20413;-83
2021/05/29 03:46:48;;;;;;;11.20;10.00;;;;;;;;;;3605816;39;22160;-83
2021/05/29 03:49:14;;;;;;;13.73;11.47;;;;;;;;;;3610522;39;20391;-83
2021/05/29 03:51:59;;;;;;;9.90;8.87;;;;;;;;;;3629623;39;20455;-83
2021/05/29 03:54:25;;;;;;;11.30;9.83;;;;;;;;;;3613611;39;20497;-83
2021/05/29 03:56:51;;;;;;;15.10;9.93;;;;;;;;;;3614721;39;20897;-83
2021/05/29 03:59:17;;;;;;;13.57;10.27;;;;;;;;;;3614212;39;21129;-83
2021/05/29 04:01:44;;;;;;;13.17;11.60;;;;;;;;;;3623833;39;20416;-83
2021/05/29 04:04:10;;;;;;;14.30;10.50;;;;;;;;;;3613592;39;21307;-83
2021/05/29 04:06:37;;;;;;;10.83;9.10;;;;;;;;;;3621483;39;20460;-82
2021/05/29 04:09:03;;;;;;;12.50;9.83;;;;;;;;;;3629609;39;20502;-83
2021/05/29 04:11:31;;;;;;;14.07;11.17;;;;;;;;;;3623215;39;20811;-82
2021/05/29 04:13:57;;;;;;;17.93;12.17;;;;;;;;;;3629620;39;20413;-83
2021/05/29 04:16:23;;;;;;;14.60;11.97;;;;;;;;;;3612611;39;21198;-83
2021/05/29 04:18:49;;;;;;;13.30;10.70;;;;;;;;;;3614344;39;20412;-83
2021/05/29 04:21:15;;;;;;;13.17;11.80;;;;;;;;;;3618796;39;20385;-83
2021/05/29 04:23:42;;;;;;;11.70;10.47;;;;;;;;;;3613529;39;20660;-83
2021/05/29 04:26:10;;;;;;;13.13;11.13;;;;;;;;;;3631046;39;20408;-82
2021/05/29 04:28:38;;;;;;;13.23;10.60;;;;;;;;;;3613227;39;20424;-83
2021/05/29 04:31:04;;;;;;;11.87;10.67;;;;;;;;;;3622086;39;20675;-83
2021/05/29 04:33:30;;;;;;;11.30;10.10;;;;;;;;;;3620572;39;21242;-83
2021/05/29 04:35:57;;;;;;;15.43;12.20;;;;;;;;;;3621877;39;20429;-83
2021/05/29 04:38:23;;;;;;;14.40;10.87;;;;;;;;;;3621900;39;21253;-83
2021/05/29 04:40:50;;;;;;;11.30;10.07;;;;;;;;;;3613007;39;20847;-83
2021/05/29 04:43:17;;;;;;;13.77;11.13;;;;;;;;;;3621771;39;20494;-83
2021/05/29 04:45:43;;;;;;;15.63;13.67;;;;;;;;;;3616112;39;20401;-83
2021/05/29 04:48:09;;;;;;;12.13;10.83;;;;;;;;;;3621419;39;20437;-84
2021/05/29 04:51:11;;;;;;;14.77;11.73;;;;;;;;;;3621838;39;20468;-83
2021/05/29 04:53:21;;;;;;;17.43;12.07;;;;;;;;;;3623271;39;20404;-83
2021/05/29 04:55:47;;;;;;;17.30;11.53;;;;;;;;;;3623786;39;20404;-83
2021/05/29 04:58:13;;;;;;;18.47;11.10;;;;;;;;;;3622826;39;20416;-83
2021/05/29 05:00:40;;;;;;;13.87;12.27;;;;;;;;;;3613639;39;20402;-83
2021/05/29 05:03:06;;;;;;;11.83;10.50;;;;;;;;;;3606386;39;23328;-83
2021/05/29 05:05:32;;;;;;;11.40;10.17;;;;;;;;;;3612156;39;20425;-83
2021/05/29 05:07:58;;;;;;;10.57;9.10;;;;;;;;;;3613748;39;20404;-83
2021/05/29 05:10:24;;;;;;;9.13;7.90;;;;;;;;;;3612306;39;20455;-83
2021/05/29 05:12:50;;;;;;;14.03;8.47;;;;;;;;;;3619357;39;20433;-83
2021/05/29 05:15:16;;;;;;;9.23;8.33;;;;;;;;;;3622063;39;20433;-83
2021/05/29 05:17:42;;;;;;;11.07;8.67;;;;;;;;;;3620879;39;20429;-83
2021/05/29 05:20:09;;;;;;;12.23;10.10;;;;;;;;;;3619798;39;21005;-83
2021/05/29 05:22:35;;;;;;;9.80;8.20;;;;;;;;;;3613056;39;20420;-84
2021/05/29 05:25:02;;;;;;;9.17;8.27;;;;;;;;;;3621841;39;20420;-83
2021/05/29 05:27:29;;;;;;;11.40;9.73;;;;;;;;;;3620943;39;21157;-84
2021/05/29 05:29:55;;;;;;;10.50;9.00;;;;;;;;;;3611726;39;20409;-82
2021/05/29 05:32:21;;;;;;;11.60;10.37;;;;;;;;;;3620812;39;20405;-83
2021/05/29 05:34:47;;;;;;;12.93;10.93;;;;;;;;;;3621039;39;20992;-84
2021/05/29 05:37:13;;;;;;;13.13;10.53;;;;;;;;;;3612917;39;20501;-81
2021/05/29 05:39:39;;;;;;;12.43;11.17;;;;;;;;;;3609660;39;20412;-82
2021/05/29 05:42:07;;;;;;;12.17;10.87;;;;;;;;;;3614233;39;20458;-82
2021/05/29 05:44:33;;;;;;;14.03;11.13;;;;;;;;;;3620669;39;20404;-83
2021/05/29 05:46:59;;;;;;;12.37;11.13;;;;;;;;;;3618656;39;20429;-83
2021/05/29 05:49:25;;;;;;;15.77;11.97;;;;;;;;;;3611315;39;20782;-83
2021/05/29 05:51:52;;;;;;;15.70;11.63;;;;;;;;;;3628080;39;20900;-83
2021/05/29 05:54:18;;;;;;;12.90;10.47;;;;;;;;;;3621208;39;20477;-83
2021/05/29 05:56:44;;;;;;;15.87;11.90;;;;;;;;;;3611382;39;20473;-83
2021/05/29 05:59:10;;;;;;;13.00;11.43;;;;;;;;;;3610422;39;20397;-83
2021/05/29 06:01:38;;;;;;;13.90;10.10;;;;;;;;;;3611353;39;20726;-83
2021/05/29 06:04:04;;;;;;;14.70;10.03;;;;;;;;;;3611126;39;20425;-83
2021/05/29 06:06:30;;;;;;;14.03;12.43;;;;;;;;;;3620243;39;20484;-83
2021/05/29 06:08:56;;;;;;;12.00;10.80;;;;;;;;;;3609622;39;20445;-83
2021/05/29 06:11:22;;;;;;;10.97;9.87;;;;;;;;;;3617999;39;20951;-83
2021/05/29 06:19:15;;;;;;;13.73;9.70;;;;;;;;;;3627487;39;22728;-83
2021/05/29 06:21:47;;;;;;;13.30;10.63;;;;;;;;;;3610529;39;21180;-83
2021/05/29 06:24:14;;;;;;;14.73;11.10;;;;;;;;;;3602617;39;20397;-83
2021/05/29 06:26:40;;;;;;;18.63;11.50;;;;;;;;;;3616617;39;20947;-83
2021/05/29 06:29:06;;;;;;;13.10;11.80;;;;;;;;;;3612283;39;20390;-83
2021/05/29 06:31:33;;;;;;;9.80;8.90;;;;;;;;;;3605645;39;20441;-83
2021/05/29 06:33:59;;;;;;;12.70;10.57;;;;;;;;;;3618735;39;20830;-83
2021/05/29 06:36:26;;;;;;;11.63;10.47;;;;;;;;;;3609784;39;20443;-83
2021/05/29 06:38:52;;;;;;;12.77;11.57;;;;;;;;;;3614983;39;20394;-83
2021/05/29 06:41:18;;;;;;;13.10;11.70;;;;;;;;;;3618908;39;20941;-83
2021/05/29 06:43:45;;;;;;;10.50;9.30;;;;;;;;;;3627459;39;20470;-82
2021/05/29 06:46:11;;;;;;;10.83;9.73;;;;;;;;;;3608763;39;21026;-83
2021/05/29 06:48:37;;;;;;;11.70;10.50;;;;;;;;;;3617101;39;20389;-82
2021/05/29 06:51:03;;;;;;;12.10;9.60;;;;;;;;;;3602900;39;20400;-82
2021/05/29 06:53:41;;;;;;;12.00;9.43;;;;;;;;;;3612173;39;20413;-83
2021/05/29 06:58:52;;;;;;;12.00;10.80;;;;;;;;;;3620721;39;20416;-82
2021/05/29 07:01:19;;;;;;;15.30;10.50;;;;;;;;;;3600687;39;20408;-83
2021/05/29 07:03:46;;;;;;;10.43;8.87;;;;;;;;;;3618011;39;20485;-83
2021/05/29 07:06:12;;;;;;;10.67;9.67;;;;;;;;;;3618548;39;20429;-83
2021/05/29 07:08:40;;;;;;;14.73;11.50;;;;;;;;;;3609140;39;21160;-83
2021/05/29 07:11:07;;;;;;;11.00;9.50;;;;;;;;;;3621035;39;20776;-83
2021/05/29 07:13:33;;;;;;;11.27;10.23;;;;;;;;;;3615420;39;20423;-83
2021/05/29 07:15:59;;;;;;;14.10;11.20;;;;;;;;;;3612481;39;20429;-83
2021/05/29 07:18:39;;;;;;;14.03;11.50;;;;;;;;;;3609760;39;20412;-83
2021/05/29 07:21:05;;;;;;;11.67;10.50;;;;;;;;;;3611422;39;20405;-83
2021/05/29 07:23:31;;;;;;;13.07;11.53;;;;;;;;;;3617893;39;21154;-83
2021/05/29 07:25:57;;;;;;;11.70;10.47;;;;;;;;;;3612256;39;20445;-84
2021/05/29 07:28:23;;;;;;;13.03;10.10;;;;;;;;;;3612062;39;20388;-84
2021/05/29 07:30:50;;;;;;;12.43;11.10;;;;;;;;;;3610200;39;20704;-84
2021/05/29 07:33:17;;;;;;;13.60;11.17;;;;;;;;;;3608789;39;20417;-83
2021/05/29 07:35:46;;;;;;;13.40;10.97;;;;;;;;;;3607990;39;20473;-83
2021/05/29 07:38:12;;;;;;;13.87;12.20;;;;;;;;;;3617565;39;20401;-83
2021/05/29 07:40:38;;;;;;;16.37;13.80;;;;;;;;;;3602656;39;20492;-85
2021/05/29 07:43:04;;;;;;;14.57;13.10;;;;;;;;;;3626330;39;20412;-84
2021/05/29 07:45:30;;;;;;;15.07;13.47;;;;;;;;;;3608611;39;20477;-84
2021/05/29 07:47:58;;;;;;;14.80;13.13;;;;;;;;;;3624864;39;20425;-84
2021/05/29 07:50:25;;;;;;;15.30;13.40;;;;;;;;;;3621376;39;20405;-83
2021/05/29 07:52:51;;;;;;;13.23;12.00;;;;;;;;;;3626127;39;20413;-83
2021/05/29 07:55:17;;;;;;;14.87;13.20;;;;;;;;;;3608428;39;20423;-84
2021/05/29 07:57:43;;;;;;;13.40;12.00;;;;;;;;;;3624212;39;20461;-83
2021/05/29 08:00:11;;;;;;;13.60;10.87;;;;;;;;;;3614522;39;20412;-83
2021/05/29 08:02:38;;;;;;;14.47;11.73;;;;;;;;;;3627389;39;20408;-84
2021/05/29 08:05:05;;;;;;;13.83;12.20;;;;;;;;;;3622849;39;20494;-82
2021/05/29 08:07:31;;;;;;;14.33;12.80;;;;;;;;;;3636554;39;20408;-82
2021/05/29 08:09:57;;;;;;;14.83;12.53;;;;;;;;;;3634054;39;20406;-82
2021/05/29 08:12:25;;;;;;;11.47;10.37;;;;;;;;;;3615258;39;20405;-83
2021/05/29 08:14:54;;;;;;;12.23;9.53;;;;;;;;;;3615735;39;20420;-83
2021/05/29 08:17:22;;;;;;;18.50;11.30;;;;;;;;;;3627692;39;20458;-83
2021/05/29 08:19:48;;;;;;;12.37;9.83;;;;;;;;;;3622929;39;20524;-82
2021/05/29 08:22:15;;;;;;;11.53;10.37;;;;;;;;;;3609634;39;20412;-83
2021/05/29 08:24:41;;;;;;;11.23;9.80;;;;;;;;;;3619118;39;20414;-83
2021/05/29 08:27:07;;;;;;;10.00;9.00;;;;;;;;;;3620159;39;20397;-83
2021/05/29 08:29:33;;;;;;;12.90;10.13;;;;;;;;;;3635790;39;20403;-83
2021/05/29 08:32:00;;;;;;;10.40;9.50;;;;;;;;;;3608832;39;20397;-82
2021/05/29 08:34:26;;;;;;;11.50;10.30;;;;;;;;;;3630561;39;20401;-81
2021/05/29 08:36:52;;;;;;;10.90;9.87;;;;;;;;;;3621585;39;20858;-82
2021/05/29 08:39:18;;;;;;;15.57;10.13;;;;;;;;;;3617012;39;20445;-81
2021/05/29 08:41:44;;;;;;;11.90;10.70;;;;;;;;;;3605426;39;20420;-81
2021/05/29 08:44:10;;;;;;;10.57;9.57;;;;;;;;;;3630240;39;20405;-81
2021/05/29 08:46:40;;;;;;;17.30;11.30;;;;;;;;;;3620452;39;20401;-81
2021/05/29 08:49:08;;;;;;;8.70;7.83;;;;;;;;;;3620809;39;21146;-83
2021/05/29 08:51:35;;;;;;;10.30;9.33;;;;;;;;;;3602477;39;20427;-82
2021/05/29 08:54:03;;;;;;;10.17;9.27;;;;;;;;;;3621787;39;20421;-82
2021/05/29 08:56:53;;;;;;;10.70;9.27;;;;;;;;;;3615956;39;20417;-81
2021/05/29 08:59:20;;;;;;;52.27;10.83;;;;;;;;;;3581592;40;20464;-81
2021/05/29 09:01:46;;;;;;;9.37;7.67;;;;;;;;;;3582289;40;20409;-81
2021/05/29 09:04:13;;;;;;;10.10;9.20;;;;;;;;;;3580650;40;21235;-81
2021/05/29 09:06:44;;;;;;;7.83;7.03;;;;;;;;;;3581592;40;20777;-81
2021/05/29 09:09:16;;;;;;;12.70;7.17;;;;;;;;;;3582547;40;20419;-81
2021/05/29 09:11:47;;;;;;;8.40;7.63;;;;;;;;;;3581218;40;20437;-81
2021/05/29 09:14:22;;;;;;;11.67;9.03;;;;;;;;;;3581477;40;21164;-82
2021/05/29 09:17:01;;;;;;;14.63;12.57;;;;;;;;;;3574412;40;20400;-82
2021/05/29 09:19:28;;;;;;;11.70;10.37;;;;;;;;;;3573019;40;20461;-82
2021/05/29 09:21:55;;;;;;;15.23;9.57;;;;;;;;;;3573297;40;20413;-82
2021/05/29 09:24:21;;;;;;;42.60;11.70;;;;;;;;;;3563941;40;20573;-81
2021/05/29 09:26:50;;;;;;;14.60;8.80;;;;;;;;;;3566572;40;20397;-82
2021/05/29 09:29:20;;;;;;;11.90;10.23;;;;;;;;;;3564197;40;20410;-82
2021/05/29 09:31:57;;;;;;;10.27;8.70;;;;;;;;;;3572560;40;20413;-82
2021/05/29 09:34:32;;;;;;;10.67;9.70;;;;;;;;;;3571771;40;20414;-82
2021/05/29 09:37:23;;;;;;;11.77;10.63;;;;;;;;;;3610819;39;20402;-82
2021/05/29 09:39:54;;;;;;;9.33;8.33;;;;;;;;;;3602466;39;21364;-81
2021/05/29 09:42:26;;;;;;;10.70;9.70;;;;;;;;;;3618152;39;20419;-81
2021/05/29 09:44:52;;;;;;;10.93;9.30;;;;;;;;;;3619853;39;20811;-81
2021/05/29 09:47:25;;;;;;;10.00;9.10;;;;;;;;;;3603217;39;20398;-82
2021/05/29 09:49:52;;;;;;;9.17;8.37;;;;;;;;;;3613609;39;20398;-81
2021/05/29 09:52:30;;;;;;;9.27;8.13;;;;;;;;;;3603806;39;21286;-82
2021/05/29 09:54:58;;;;;;;12.13;10.83;;;;;;;;;;3606122;39;20422;-82
2021/05/29 09:57:24;;;;;;;11.87;10.67;;;;;;;;;;3603409;39;20394;-82
2021/05/29 09:59:54;;;;;;;10.23;9.33;;;;;;;;;;3603229;39;20410;-82
2021/05/29 10:02:20;;;;;;;11.00;9.90;;;;;;;;;;3613015;39;20410;-82
2021/05/29 10:04:58;;;;;;;13.17;9.80;;;;;;;;;;3613155;39;20425;-82
2021/05/29 10:07:25;;;;;;;11.90;10.47;;;;;;;;;;3604917;39;20426;-82
2021/05/29 10:09:51;;;;;;;11.90;10.80;;;;;;;;;;3606060;39;20417;-83
2021/05/29 10:12:18;;;;;;;10.63;9.70;;;;;;;;;;3615316;39;20516;-82
2021/05/29 10:14:45;;;;;;;9.97;9.10;;;;;;;;;;3605560;39;20812;-82
2021/05/29 10:17:12;;;;;;;10.43;9.53;;;;;;;;;;3602233;39;20398;-82
2021/05/29 10:19:39;;;;;;;8.60;7.80;;;;;;;;;;3613126;39;20406;-82
2021/05/29 10:22:09;;;;;;;10.87;9.57;;;;;;;;;;3612230;39;20414;-82
2021/05/29 10:24:38;;;;;;;8.50;7.77;;;;;;;;;;3617872;39;20417;-82
2021/05/29 10:27:06;;;;;;;7.93;7.23;;;;;;;;;;3605843;39;20394;-82
2021/05/29 10:29:33;;;;;;;7.60;6.90;;;;;;;;;;3613781;39;20414;-82
2021/05/29 10:32:14;;;;;;;10.73;8.67;;;;;;;;;;3614580;39;20414;-81
2021/05/29 10:34:52;;;;;;;9.00;8.10;;;;;;;;;;3608044;39;21143;-81
2021/05/29 10:37:43;;;;;;;8.73;7.90;;;;;;;;;;3613030;39;20462;-82
2021/05/29 10:40:22;;;;;;;10.90;6.93;;;;;;;;;;3609446;39;20513;-83
2021/05/29 10:43:06;;;;;;;8.10;7.30;;;;;;;;;;3609142;39;20503;-81
2021/05/29 10:45:33;;;;;;;7.93;6.87;;;;;;;;;;3614223;39;20413;-82
2021/05/29 10:48:13;;;;;;;10.20;6.80;;;;;;;;;;3613758;39;20398;-83
2021/05/29 10:51:06;;;;;;;9.47;8.57;;;;;;;;;;3608638;39;20492;-82
2021/05/29 10:53:53;;;;;;;10.13;8.47;;;;;;;;;;3608036;39;20401;-82
2021/05/29 10:56:20;;;;;;;11.20;8.13;;;;;;;;;;3614802;39;20409;-82
2021/05/29 10:59:01;;;;;;;8.03;7.23;;;;;;;;;;3614154;39;20406;-83
2021/05/29 11:01:35;;;;;;;10.20;9.40;;;;;;;;;;3622034;39;20395;-82
2021/05/29 11:04:22;;;;;;;9.20;8.40;;;;;;;;;;3603931;39;21196;-83
2021/05/29 11:06:49;;;;;;;8.70;6.90;;;;;;;;;;3623187;39;20409;-83
2021/05/29 11:09:18;;;;;;;10.53;9.53;;;;;;;;;;3618307;39;20401;-82
2021/05/29 11:11:56;;;;;;;9.67;8.10;;;;;;;;;;3616014;39;21188;-82
2021/05/29 11:14:26;;;;;;;9.00;7.87;;;;;;;;;;3616903;39;20412;-82
2021/05/29 11:16:53;;;;;;;10.60;8.27;;;;;;;;;;3617302;39;20409;-83
2021/05/29 11:19:21;;;;;;;13.90;8.23;;;;;;;;;;3614682;39;20392;-82
2021/05/29 11:22:08;;;;;;;7.93;7.23;;;;;;;;;;3614134;39;20690;-81
2021/05/29 11:24:40;;;;;;;7.23;6.17;;;;;;;;;;3617298;39;20453;-81
2021/05/29 11:27:30;;;;;;;7.47;6.87;;;;;;;;;;3623617;39;20428;-82
2021/05/29 11:30:01;;;;;;;7.07;6.47;;;;;;;;;;3617745;39;20405;-82
2021/05/29 11:33:02;;;;;;;8.23;7.43;;;;;;;;;;3623170;39;20408;-82
2021/05/29 11:35:33;;;;;;;8.70;7.67;;;;;;;;;;3616831;39;20405;-83
2021/05/29 11:40:40;;;;;;;7.80;7.00;;;;;;;;;;3631788;39;20407;-82
2021/05/29 11:43:09;;;;;;;7.20;6.50;;;;;;;;;;3616593;39;20417;-82
2021/05/29 11:45:36;;;;;;;7.37;6.33;;;;;;;;;;3606190;39;20448;-82
2021/05/29 11:48:05;;;;;;;9.70;6.90;;;;;;;;;;3614165;39;20728;-82
2021/05/29 11:51:10;;;;;;;10.80;8.00;;;;;;;;;;3617720;39;20402;-82
2021/05/29 11:53:40;;;;;;;8.10;6.83;;;;;;;;;;3601480;39;20993;-82
2021/05/29 11:56:32;;;;;;;9.33;7.00;;;;;;;;;;3593903;39;20524;-82
2021/05/29 11:59:27;;;;;;;9.70;6.70;;;;;;;;;;3556330;40;21238;-82
2021/05/29 12:01:56;;;;;;;8.40;5.90;;;;;;;;;;3536690;40;20397;-82
2021/05/29 12:04:23;;;;;;;7.70;5.73;;;;;;;;;;3536640;40;20437;-82
2021/05/29 12:06:50;;;;;;;7.83;7.13;;;;;;;;;;3518996;40;20422;-82
2021/05/29 12:09:27;;;;;;;6.10;5.60;;;;;;;;;;3536816;40;20417;-82
2021/05/29 12:11:54;;;;;;;6.70;6.10;;;;;;;;;;3538146;40;20506;-82
2021/05/29 12:14:32;;;;;;;7.00;6.40;;;;;;;;;;3535910;40;20444;-82
2021/05/29 12:16:59;;;;;;;12.17;11.00;;;;;;;;;;3536273;40;20421;-82
2021/05/29 12:19:30;;;;;;;7.60;6.90;;;;;;;;;;3535378;40;20436;-81
2021/05/29 12:21:59;;;;;;;6.87;6.10;;;;;;;;;;3537058;40;20457;-81
2021/05/29 12:24:55;;;;;;;29.47;26.30;;;;;;;;;;3534666;40;20425;-81
2021/05/29 12:27:23;;;;;;;8.27;7.47;;;;;;;;;;3507707;41;20427;-81
2021/05/29 12:29:56;;;;;;;10.87;9.17;;;;;;;;;;3503772;40;20476;-81
2021/05/29 12:35:39;;;;;;;11.47;7.50;;;;;;;;;;3511801;40;20493;-82
2021/05/29 12:38:14;;;;;;;7.90;7.10;;;;;;;;;;3533384;40;20404;-82
2021/05/29 12:41:22;;;;;;;14.93;9.13;;;;;;;;;;3557263;40;20428;-82
2021/05/29 12:44:11;;;;;;;24.00;21.73;;;;;;;;;;3528036;40;20505;-82
2021/05/29 12:46:39;;;;;;;7.77;7.03;;;;;;;;;;3527857;40;20391;-82
2021/05/29 12:49:38;;;;;;;9.40;7.37;;;;;;;;;;3516421;40;20497;-83
2021/05/29 12:52:21;;;;;;;8.20;7.47;;;;;;;;;;3510843;40;20446;-82
2021/05/29 12:55:17;;;;;;;35.13;31.23;;;;;;;;;;3519829;40;20403;-82
2021/05/29 12:57:45;;;;;;;54.70;43.30;;;;;;;;;;3501063;41;21008;-82
2021/05/29 13:00:23;;;;;;;12.57;7.97;;;;;;;;;;3494395;41;20421;-82
2021/05/29 13:11:29;;;;;;;7.70;7.00;;;;;;;;;;3508466;40;20420;-82
2021/05/29 13:14:28;;;;;;;7.63;7.03;;;;;;;;;;3529660;40;20613;-82
2021/05/29 13:16:55;;;;;;;8.77;7.80;;;;;;;;;;3546830;40;20555;-82
2021/05/29 13:19:22;;;;;;;8.27;7.47;;;;;;;;;;3543741;40;20409;-82
2021/05/29 13:21:52;;;;;;;7.30;6.70;;;;;;;;;;3557585;40;20431;-81
2021/05/29 13:24:37;;;;;;;11.43;10.43;;;;;;;;;;3539867;40;20432;-82
2021/05/29 13:27:05;;;;;;;30.43;24.17;;;;;;;;;;3548936;40;20475;-82
2021/05/29 13:29:33;;;;;;;18.73;16.83;;;;;;;;;;3552100;40;20629;-82
2021/05/29 13:32:00;;;;;;;10.77;9.40;;;;;;;;;;3540383;40;20415;-82
2021/05/29 13:34:29;;;;;;;8.23;7.50;;;;;;;;;;3587945;39;20439;-82
2021/05/29 13:36:56;;;;;;;19.90;17.77;;;;;;;;;;3597250;39;20398;-82
2021/05/29 13:39:25;;;;;;;8.40;7.70;;;;;;;;;;3605747;39;20925;-82
2021/05/29 13:42:14;;;;;;;9.10;8.30;;;;;;;;;;3596946;39;20454;-82
2021/05/29 13:44:41;;;;;;;12.53;8.17;;;;;;;;;;3589783;40;20417;-82
2021/05/29 13:47:08;;;;;;;8.47;7.77;;;;;;;;;;3585418;40;21220;-82
2021/05/29 13:49:35;;;;;;;13.30;7.43;;;;;;;;;;3580749;40;20429;-81
2021/05/29 13:52:31;;;;;;;7.33;6.60;;;;;;;;;;3574694;40;20482;-81
2021/05/29 13:55:25;;;;;;;10.20;8.67;;;;;;;;;;3564708;40;21179;-81
2021/05/29 13:57:52;;;;;;;27.33;20.20;;;;;;;;;;3536367;40;20420;-82
2021/05/29 14:00:19;;;;;;;7.40;6.80;;;;;;;;;;3536227;40;20489;-82
2021/05/29 14:02:45;;;;;;;7.57;6.90;;;;;;;;;;3531208;40;20583;-82
2021/05/29 14:05:12;;;;;;;16.50;10.50;;;;;;;;;;3528503;40;20456;-82
2021/05/29 14:07:39;;;;;;;8.20;7.40;;;;;;;;;;3534733;40;20465;-82
2021/05/29 14:10:35;;;;;;;11.03;7.50;;;;;;;;;;3527391;40;20440;-82
2021/05/29 14:13:03;;;;;;;7.47;6.77;;;;;;;;;;3490695;41;20424;-81
2021/05/29 14:15:29;;;;;;;8.77;7.97;;;;;;;;;;3497113;41;20419;-82
2021/05/29 14:17:55;;;;;;;7.97;7.27;;;;;;;;;;3490140;41;20413;-82
2021/05/29 14:20:23;;;;;;;8.13;6.10;;;;;;;;;;3489146;41;20869;-83
2021/05/29 14:22:49;;;;;;;12.43;8.70;;;;;;;;;;3523734;40;20471;-82
2021/05/29 14:25:18;;;;;;;11.40;6.57;;;;;;;;;;3517345;40;20445;-83
2021/05/29 14:27:45;;;;;;;7.97;7.27;;;;;;;;;;3508587;40;20407;-83
2021/05/29 14:30:11;;;;;;;7.77;7.00;;;;;;;;;;3510647;40;20487;-83
2021/05/29 14:33:08;;;;;;;8.53;7.60;;;;;;;;;;3545358;40;20420;-83
2021/05/29 14:35:34;;;;;;;7.33;5.47;;;;;;;;;;3555583;40;20921;-83
2021/05/29 14:38:26;;;;;;;7.83;7.13;;;;;;;;;;3546326;40;20528;-83
2021/05/29 14:40:53;;;;;;;8.37;7.67;;;;;;;;;;3525683;40;20837;-83
2021/05/29 14:43:20;;;;;;;7.10;6.50;;;;;;;;;;3536321;40;20429;-82
2021/05/29 14:45:46;;;;;;;8.27;7.50;;;;;;;;;;3524591;40;20424;-83
2021/05/29 14:48:12;;;;;;;9.13;8.27;;;;;;;;;;3515902;40;20401;-83
2021/05/29 14:53:27;;;;;;;7.47;6.80;;;;;;;;;;3552125;40;21252;-82
2021/05/29 14:55:54;;;;;;;8.53;7.73;;;;;;;;;;3562182;40;20427;-82
2021/05/29 14:58:20;;;;;;;7.70;7.00;;;;;;;;;;3550911;40;20476;-84
2021/05/29 15:00:46;;;;;;;7.43;6.73;;;;;;;;;;3554542;40;20452;-83
2021/05/29 15:03:12;;;;;;;13.40;7.63;;;;;;;;;;3548348;40;20431;-83
2021/05/29 15:05:38;;;;;;;7.83;7.03;;;;;;;;;;3563054;40;20551;-82
2021/05/29 15:08:05;;;;;;;8.33;7.47;;;;;;;;;;3545871;40;20395;-82